createdAt,value
2024-02-28T00:00:06.485Z,18.15
2024-02-28T00:02:51.442Z,18.55
2024-02-28T00:05:36.668Z,17.25
2024-02-28T00:08:22.571Z,18.77
2024-02-28T00:11:07.808Z,17.87
2024-02-28T00:13:53.942Z,18.88
2024-02-28T00:16:45.909Z,19.00
2024-02-28T00:19:30.971Z,18.83
2024-02-28T00:22:16.455Z,17.52
2024-02-28T00:25:02.175Z,17.83
2024-02-28T00:27:47.395Z,17.95
2024-02-28T00:30:33.814Z,18.27
2024-02-28T00:33:18.821Z,18.48
2024-02-28T00:36:04.171Z,18.40
2024-02-28T00:38:49.329Z,19.63
2024-02-28T00:41:34.743Z,18.60
2024-02-28T00:44:19.709Z,19.48
2024-02-28T00:47:04.928Z,19.55
2024-02-28T00:49:50.017Z,20.08
2024-02-28T00:52:34.999Z,19.00
2024-02-28T00:55:21.232Z,19.85
2024-02-28T00:58:06.281Z,19.83
2024-02-28T01:00:51.513Z,19.85
2024-02-28T01:03:36.539Z,19.85
2024-02-28T01:06:21.768Z,21.00
2024-02-28T01:09:06.681Z,20.17
2024-02-28T01:11:51.825Z,19.63
2024-02-28T01:14:36.864Z,19.02
2024-02-28T01:17:22.841Z,19.88
2024-02-28T01:20:09.510Z,20.27
2024-02-28T01:22:54.575Z,20.05
2024-02-28T01:25:39.831Z,19.83
2024-02-28T01:28:24.812Z,19.63
2024-02-28T01:31:09.839Z,18.55
2024-02-28T01:33:56.727Z,19.53
2024-02-28T01:36:41.647Z,18.83
2024-02-28T01:39:26.637Z,19.85
2024-02-28T01:42:11.587Z,18.23
2024-02-28T01:44:56.903Z,17.98
2024-02-28T01:47:44.869Z,18.97
2024-02-28T01:50:29.764Z,17.85
2024-02-28T01:53:15.136Z,19.42
2024-02-28T01:56:00.058Z,18.20
2024-02-28T01:58:47.988Z,18.98
2024-02-28T02:01:33.347Z,20.13
2024-02-28T02:04:18.519Z,19.75
2024-02-28T02:07:03.435Z,17.40
2024-02-28T02:09:48.304Z,19.88
2024-02-28T02:12:34.012Z,22.48
2024-02-28T02:15:19.570Z,19.90
2024-02-28T02:18:05.006Z,18.27
2024-02-28T02:20:55.950Z,19.27
2024-02-28T02:23:42.438Z,19.20
2024-02-28T02:26:27.388Z,19.20
2024-02-28T02:29:12.239Z,16.67
2024-02-28T02:31:57.179Z,13.43
2024-02-28T02:34:42.362Z,16.42
2024-02-28T02:37:27.389Z,16.70
2024-02-28T02:40:13.349Z,18.48
2024-02-28T02:42:58.493Z,17.53
2024-02-28T02:45:44.338Z,16.58
2024-02-28T02:48:29.447Z,18.63
2024-02-28T02:51:14.587Z,18.15
2024-02-28T02:53:59.977Z,17.63
2024-02-28T02:56:45.164Z,17.87
2024-02-28T02:59:30.448Z,17.23
2024-02-28T03:02:15.480Z,17.83
2024-02-28T03:05:00.706Z,16.35
2024-02-28T03:07:45.671Z,16.33
2024-02-28T03:10:30.549Z,17.50
2024-02-28T03:13:15.785Z,16.60
2024-02-28T03:16:00.797Z,16.38
2024-02-28T03:18:45.668Z,17.63
2024-02-28T03:21:30.577Z,17.10
2024-02-28T03:24:15.888Z,16.47
2024-02-28T03:27:00.938Z,16.20
2024-02-28T03:29:45.754Z,17.15
2024-02-28T03:32:30.806Z,16.38
2024-02-28T03:35:15.965Z,17.85
2024-02-28T03:38:00.891Z,15.47
2024-02-28T03:40:45.904Z,15.95
2024-02-28T03:43:30.965Z,14.50
2024-02-28T03:46:16.306Z,15.38
2024-02-28T03:49:01.422Z,14.48
2024-02-28T03:51:46.508Z,15.87
2024-02-28T03:54:31.762Z,17.20
2024-02-28T03:57:16.679Z,14.52
2024-02-28T04:00:05.847Z,14.73
2024-02-28T04:02:50.977Z,15.73
2024-02-28T04:05:36.295Z,15.57
2024-02-28T04:08:21.429Z,17.42
2024-02-28T04:11:06.606Z,17.45
2024-02-28T04:13:51.839Z,14.57
2024-02-28T04:16:42.234Z,15.50
2024-02-28T04:19:27.141Z,16.47
2024-02-28T04:22:12.285Z,16.30
2024-02-28T04:24:57.850Z,15.18
2024-02-28T04:27:42.950Z,16.60
2024-02-28T04:30:28.030Z,15.82
2024-02-28T04:33:13.426Z,17.03
2024-02-28T04:35:58.932Z,16.30
2024-02-28T04:38:44.155Z,18.33
2024-02-28T04:41:29.423Z,17.48
2024-02-28T04:44:14.416Z,18.08
2024-02-28T04:46:59.544Z,16.37
2024-02-28T04:49:44.738Z,17.45
2024-02-28T04:52:29.609Z,16.95
2024-02-28T04:55:14.770Z,16.50
2024-02-28T04:57:59.801Z,17.50
2024-02-28T05:00:44.859Z,17.93
2024-02-28T05:03:30.040Z,19.02
2024-02-28T05:06:15.431Z,17.92
2024-02-28T05:09:00.786Z,18.25
2024-02-28T05:11:46.253Z,16.85
2024-02-28T05:14:31.504Z,18.30
2024-02-28T05:17:17.855Z,17.75
2024-02-28T05:20:02.749Z,16.67
2024-02-28T05:22:47.667Z,17.52
2024-02-28T05:25:33.143Z,16.63
2024-02-28T05:28:18.338Z,17.53
2024-02-28T05:31:21.628Z,15.32
2024-02-28T05:34:07.243Z,16.33
2024-02-28T05:36:52.498Z,16.70
2024-02-28T05:39:37.475Z,17.05
2024-02-28T05:42:25.195Z,15.97
2024-02-28T05:45:10.166Z,16.85
2024-02-28T05:47:55.452Z,17.02
2024-02-28T05:50:40.874Z,18.40
2024-02-28T05:53:27.951Z,17.17
2024-02-28T05:56:17.470Z,17.80
2024-02-28T05:59:03.577Z,18.20
2024-02-28T06:01:48.592Z,16.83
2024-02-28T06:04:34.340Z,17.67
2024-02-28T06:07:19.291Z,16.77
2024-02-28T06:10:04.714Z,17.20
2024-02-28T06:12:49.730Z,16.90
2024-02-28T06:15:35.064Z,16.38
2024-02-28T06:18:20.608Z,17.38
2024-02-28T06:21:05.727Z,17.45
2024-02-28T06:23:50.914Z,17.80
2024-02-28T06:26:35.996Z,18.45
2024-02-28T06:29:23.101Z,16.77
2024-02-28T06:32:08.614Z,16.95
2024-02-28T06:34:54.246Z,16.98
2024-02-28T06:37:39.515Z,16.60
2024-02-28T06:40:24.716Z,15.27
2024-02-28T06:43:09.542Z,15.88
2024-02-28T06:45:54.835Z,14.85
2024-02-28T06:48:39.937Z,16.92
2024-02-28T06:51:25.564Z,16.63
2024-02-28T06:54:11.464Z,16.65
2024-02-28T06:56:56.791Z,16.88
2024-02-28T06:59:41.781Z,17.63
2024-02-28T07:02:27.657Z,16.45
2024-02-28T07:05:13.601Z,16.10
2024-02-28T07:07:58.815Z,17.33
2024-02-28T07:10:45.124Z,17.13
2024-02-28T07:13:30.367Z,17.65
2024-02-28T07:16:15.336Z,18.20
2024-02-28T07:19:03.780Z,17.97
2024-02-28T07:21:48.739Z,17.73
2024-02-28T07:24:33.949Z,18.08
2024-02-28T07:27:18.969Z,19.88
2024-02-28T07:30:04.344Z,14.63
2024-02-28T07:32:51.476Z,16.57
2024-02-28T07:35:48.050Z,18.40
2024-02-28T07:38:33.742Z,18.25
2024-02-28T07:41:18.642Z,18.80
2024-02-28T07:44:04.816Z,18.25
2024-02-28T07:46:51.699Z,15.93
2024-02-28T07:49:36.590Z,16.60
2024-02-28T07:52:21.850Z,16.85
2024-02-28T07:55:07.190Z,16.02
2024-02-28T07:57:53.863Z,16.02
2024-02-28T08:00:39.249Z,16.83
2024-02-28T08:03:24.834Z,14.88
2024-02-28T08:06:09.782Z,18.15
2024-02-28T08:08:54.630Z,16.45
2024-02-28T08:11:39.612Z,17.75
2024-02-28T08:14:25.296Z,15.93
2024-02-28T08:17:10.133Z,15.30
2024-02-28T08:19:55.581Z,18.05
2024-02-28T08:22:40.429Z,18.02
2024-02-28T08:25:25.690Z,15.85
2024-02-28T08:28:10.769Z,16.30
2024-02-28T08:30:56.072Z,15.10
2024-02-28T08:33:42.488Z,13.88
2024-02-28T08:36:27.507Z,15.60
2024-02-28T08:39:12.526Z,8.45
2024-02-28T08:41:57.348Z,13.53
2024-02-28T08:44:42.852Z,15.18
2024-02-28T08:47:28.306Z,15.98
2024-02-28T08:50:13.247Z,16.80
2024-02-28T08:52:58.643Z,14.25
2024-02-28T08:55:43.628Z,12.03
2024-02-28T08:58:28.543Z,15.27
2024-02-28T09:01:16.798Z,14.40
2024-02-28T09:04:02.105Z,17.85
2024-02-28T09:06:47.368Z,17.70
2024-02-28T09:09:35.125Z,15.73
2024-02-28T09:12:20.028Z,19.20
2024-02-28T09:15:05.629Z,16.25
2024-02-28T09:17:50.766Z,16.17
2024-02-28T09:20:36.047Z,15.95
2024-02-28T09:23:22.047Z,15.70
2024-02-28T09:26:07.458Z,17.85
2024-02-28T09:28:52.622Z,17.63
2024-02-28T09:31:37.655Z,14.85
2024-02-28T09:34:23.424Z,17.58
2024-02-28T09:37:08.485Z,15.20
2024-02-28T09:39:54.262Z,16.98
2024-02-28T09:42:39.457Z,16.67
2024-02-28T09:45:25.529Z,16.15
2024-02-28T09:48:11.612Z,16.77
2024-02-28T09:51:01.004Z,15.47
2024-02-28T09:53:45.982Z,14.25
2024-02-28T09:56:31.063Z,12.95
2024-02-28T09:59:17.030Z,15.93
2024-02-28T10:02:02.362Z,13.82
2024-02-28T10:04:47.117Z,16.40
2024-02-28T10:07:32.355Z,15.77
2024-02-28T10:10:18.782Z,16.85
2024-02-28T10:13:03.733Z,15.88
2024-02-28T10:15:50.413Z,15.88
2024-02-28T10:18:35.386Z,14.77
2024-02-28T10:21:20.410Z,16.45
2024-02-28T10:24:06.112Z,16.38
2024-02-28T10:26:56.292Z,16.25
2024-02-28T10:29:42.979Z,15.32
2024-02-28T10:32:28.363Z,7.27
2024-02-28T10:35:14.392Z,12.23
2024-02-28T10:37:59.856Z,15.90
2024-02-28T10:40:44.922Z,17.52
2024-02-28T10:43:31.264Z,16.17
2024-02-28T10:46:34.255Z,15.60
2024-02-28T10:49:21.859Z,16.30
2024-02-28T10:52:07.321Z,15.65
2024-02-28T10:54:57.017Z,13.98
2024-02-28T10:57:43.284Z,15.43
2024-02-28T11:00:29.291Z,12.60
2024-02-28T11:03:16.850Z,14.35
2024-02-28T11:06:02.185Z,16.40
2024-02-28T11:08:54.369Z,15.73
2024-02-28T11:11:41.421Z,15.55
2024-02-28T11:14:27.998Z,15.17
2024-02-28T11:17:13.292Z,14.70
2024-02-28T11:19:58.322Z,14.35
2024-02-28T11:22:44.479Z,13.20
2024-02-28T11:25:29.792Z,14.02
2024-02-28T11:28:15.761Z,14.10
2024-02-28T11:31:01.030Z,14.77
2024-02-28T11:33:45.905Z,13.93
2024-02-28T11:36:31.082Z,14.98
2024-02-28T11:39:17.300Z,13.68
2024-02-28T11:42:15.248Z,13.83
2024-02-28T11:45:02.221Z,13.85
2024-02-28T11:47:48.481Z,14.75
2024-02-28T11:50:33.568Z,11.50
2024-02-28T11:53:18.784Z,9.02
2024-02-28T11:56:04.652Z,12.33
2024-02-28T11:58:53.504Z,8.45
2024-02-28T12:01:44.908Z,12.27
2024-02-28T12:04:29.956Z,6.03
2024-02-28T12:07:14.992Z,13.02
2024-02-28T12:10:00.749Z,12.30
2024-02-28T12:12:47.070Z,11.73
2024-02-28T12:15:32.743Z,12.88
2024-02-28T12:18:17.889Z,11.48
2024-02-28T12:21:03.429Z,12.32
2024-02-28T12:23:51.166Z,12.77
2024-02-28T12:26:36.549Z,10.40
2024-02-28T12:29:22.152Z,12.60
2024-02-28T12:32:08.569Z,11.43
2024-02-28T12:34:54.809Z,11.65
2024-02-28T12:37:40.179Z,10.97
2024-02-28T12:40:26.303Z,11.75
2024-02-28T12:43:12.043Z,8.88
2024-02-28T12:45:56.896Z,10.98
2024-02-28T12:48:42.207Z,11.10
2024-02-28T12:51:45.257Z,6.37
2024-02-28T12:54:30.959Z,11.35
2024-02-28T12:57:17.715Z,10.20
2024-02-28T13:00:02.946Z,10.13
2024-02-28T13:02:48.213Z,11.10
2024-02-28T13:05:33.306Z,9.63
2024-02-28T13:08:18.740Z,9.20
2024-02-28T13:11:04.451Z,10.63
2024-02-28T13:13:50.420Z,10.45
2024-02-28T13:16:35.773Z,9.13
2024-02-28T13:19:21.148Z,3.57
2024-02-28T13:22:06.369Z,10.23
2024-02-28T13:24:51.443Z,8.35
2024-02-28T13:27:36.271Z,9.52
2024-02-28T13:30:21.051Z,6.40
2024-02-28T13:33:06.219Z,8.83
2024-02-28T13:35:51.448Z,9.98
2024-02-28T13:38:37.289Z,9.43
2024-02-28T13:41:22.161Z,9.07
2024-02-28T13:44:07.205Z,7.85
2024-02-28T13:46:53.150Z,9.67
2024-02-28T13:49:38.317Z,9.27
2024-02-28T13:52:23.464Z,8.63
2024-02-28T13:55:10.270Z,8.82
2024-02-28T13:57:55.446Z,9.38
2024-02-28T14:00:41.024Z,8.77
2024-02-28T14:03:26.576Z,7.97
2024-02-28T14:06:11.728Z,9.25
2024-02-28T14:08:56.922Z,7.80
2024-02-28T14:11:41.928Z,8.90
2024-02-28T14:14:26.906Z,8.03
2024-02-28T14:17:12.017Z,8.00
2024-02-28T14:19:57.008Z,7.53
2024-02-28T14:22:44.808Z,8.38
2024-02-28T14:25:29.893Z,8.18
2024-02-28T14:28:15.030Z,8.33
2024-02-28T14:31:00.060Z,8.20
2024-02-28T14:33:46.727Z,7.88
2024-02-28T14:36:32.081Z,7.72
2024-02-28T14:39:18.671Z,8.43
2024-02-28T14:42:03.933Z,8.20
2024-02-28T14:44:48.844Z,8.10
2024-02-28T14:47:33.785Z,8.93
2024-02-28T14:50:18.957Z,8.82
2024-02-28T14:53:04.525Z,9.02
2024-02-28T14:55:49.849Z,8.07
2024-02-28T14:58:34.843Z,7.78
2024-02-28T15:01:19.876Z,8.50
2024-02-28T15:04:05.190Z,9.52
2024-02-28T15:06:50.414Z,7.72
2024-02-28T15:09:37.286Z,8.73
2024-02-28T15:12:23.610Z,8.95
2024-02-28T15:15:09.190Z,8.35
2024-02-28T15:17:54.495Z,8.57
2024-02-28T15:20:39.709Z,7.70
2024-02-28T15:23:24.784Z,8.27
2024-02-28T15:26:11.297Z,8.38
2024-02-28T15:28:56.672Z,8.63
2024-02-28T15:31:41.581Z,8.05
2024-02-28T15:34:26.544Z,8.18
2024-02-28T15:37:12.521Z,8.60
2024-02-28T15:39:57.574Z,8.55
2024-02-28T15:42:42.537Z,8.63
2024-02-28T15:45:27.931Z,8.05
2024-02-28T15:48:13.178Z,7.97
2024-02-28T15:50:58.997Z,7.90
2024-02-28T15:53:40.434Z,8.50
2024-02-28T15:56:25.713Z,8.95
2024-02-28T15:59:13.131Z,7.88
2024-02-28T16:01:58.494Z,8.00
2024-02-28T16:04:43.614Z,8.43
2024-02-28T16:07:28.728Z,8.73
2024-02-28T16:10:13.925Z,8.00
2024-02-28T16:12:59.341Z,8.68
2024-02-28T16:15:44.332Z,8.32
2024-02-28T16:18:29.665Z,7.93
2024-02-28T16:21:14.724Z,7.65
2024-02-28T16:24:00.347Z,8.65
2024-02-28T16:26:45.648Z,8.02
2024-02-28T16:29:31.477Z,8.48
2024-02-28T16:32:16.430Z,8.77
2024-02-28T16:35:02.770Z,9.25
2024-02-28T16:37:48.325Z,8.60
2024-02-28T16:40:33.559Z,9.13
2024-02-28T16:43:18.561Z,8.80
2024-02-28T16:46:03.978Z,9.43
2024-02-28T16:48:49.414Z,8.82
2024-02-28T16:51:34.993Z,8.45
2024-02-28T16:54:20.567Z,8.82
2024-02-28T16:57:05.704Z,9.40
2024-02-28T16:59:51.034Z,9.30
2024-02-28T17:02:39.845Z,8.13
2024-02-28T17:05:25.423Z,8.70
2024-02-28T17:08:12.689Z,8.25
2024-02-28T17:11:23.112Z,8.48
2024-02-28T17:14:08.044Z,8.33
2024-02-28T17:16:53.036Z,9.35
2024-02-28T17:19:39.533Z,8.82
2024-02-28T17:22:25.814Z,8.98
2024-02-28T17:25:11.532Z,9.75
2024-02-28T17:27:58.837Z,8.87
2024-02-28T17:30:44.103Z,8.95
2024-02-28T17:33:29.257Z,9.52
2024-02-28T17:36:14.815Z,9.80
2024-02-28T17:39:00.145Z,9.50
2024-02-28T17:41:46.338Z,8.77
2024-02-28T17:44:31.642Z,9.65
2024-02-28T17:47:19.477Z,8.95
2024-02-28T17:50:06.231Z,9.32
2024-02-28T17:52:51.488Z,9.55
2024-02-28T17:55:36.464Z,10.13
2024-02-28T17:58:21.650Z,10.48
2024-02-28T18:01:08.589Z,10.43
2024-02-28T18:03:53.907Z,10.15
2024-02-28T18:06:38.789Z,10.25
2024-02-28T18:09:27.647Z,9.70
2024-02-28T18:12:13.567Z,10.23
2024-02-28T18:14:58.454Z,9.48
2024-02-28T18:17:44.081Z,10.32
2024-02-28T18:20:29.765Z,9.77
2024-02-28T18:23:23.837Z,10.13
2024-02-28T18:26:13.371Z,9.95
2024-02-28T18:29:00.072Z,13.63
2024-02-28T18:31:45.245Z,17.70
2024-02-28T18:34:30.374Z,13.55
2024-02-28T18:37:16.702Z,11.03
2024-02-28T18:40:01.839Z,10.68
2024-02-28T18:42:47.444Z,8.88
2024-02-28T18:45:32.359Z,8.60
2024-02-28T18:48:17.511Z,9.82
2024-02-28T18:51:02.842Z,9.17
2024-02-28T18:53:48.204Z,9.32
2024-02-28T18:56:35.602Z,10.13
2024-02-28T18:59:20.617Z,9.43
2024-02-28T19:02:06.002Z,8.93
2024-02-28T19:04:51.143Z,8.77
2024-02-28T19:07:36.172Z,9.70
2024-02-28T19:10:21.445Z,9.20
2024-02-28T19:13:06.403Z,9.38
2024-02-28T19:15:52.829Z,9.65
2024-02-28T19:18:39.085Z,8.67
2024-02-28T19:21:24.291Z,10.43
2024-02-28T19:24:10.091Z,9.82
2024-02-28T19:26:56.587Z,10.35
2024-02-28T19:29:42.876Z,10.10
2024-02-28T19:32:28.056Z,10.70
2024-02-28T19:35:13.135Z,11.40
2024-02-28T19:37:58.467Z,10.05
2024-02-28T19:40:43.414Z,11.13
2024-02-28T19:43:29.942Z,10.95
2024-02-28T19:46:15.149Z,10.87
2024-02-28T19:49:00.186Z,10.85
2024-02-28T19:51:45.605Z,9.95
2024-02-28T19:54:30.867Z,9.85
2024-02-28T19:57:17.727Z,10.00
2024-02-28T20:00:10.439Z,10.40
2024-02-28T20:02:57.181Z,10.50
2024-02-28T20:05:42.121Z,9.70
2024-02-28T20:08:27.247Z,9.82
2024-02-28T20:11:12.629Z,9.32
2024-02-28T20:13:58.171Z,8.23
2024-02-28T20:16:44.522Z,8.18
2024-02-28T20:19:29.534Z,8.68
2024-02-28T20:22:15.075Z,8.10
2024-02-28T20:25:00.116Z,8.10
2024-02-28T20:27:46.697Z,7.57
2024-02-28T20:30:32.004Z,6.15
2024-02-28T20:33:19.164Z,5.88
2024-02-28T20:36:04.602Z,6.38
2024-02-28T20:38:51.424Z,5.40
2024-02-28T20:41:42.871Z,5.33
2024-02-28T20:44:29.941Z,5.32
2024-02-28T20:47:15.031Z,5.13
2024-02-28T20:49:59.989Z,5.20
2024-02-28T20:52:44.983Z,5.45
2024-02-28T20:55:31.348Z,6.23
2024-02-28T20:58:16.696Z,5.47
2024-02-28T21:01:02.763Z,5.43
2024-02-28T21:03:47.916Z,5.90
2024-02-28T21:06:34.614Z,5.50
2024-02-28T21:09:19.665Z,5.40
2024-02-28T21:12:06.202Z,5.72
2024-02-28T21:14:56.892Z,5.45
2024-02-28T21:17:42.121Z,6.03
2024-02-28T21:20:27.084Z,5.32
2024-02-28T21:23:12.373Z,5.20
2024-02-28T21:25:57.619Z,4.97
2024-02-28T21:28:43.022Z,5.18
2024-02-28T21:31:28.006Z,5.22
2024-02-28T21:34:12.867Z,5.18
2024-02-28T21:36:57.982Z,5.20
2024-02-28T21:39:42.970Z,6.18
2024-02-28T21:42:28.255Z,5.38
2024-02-28T21:45:13.329Z,5.75
2024-02-28T21:47:59.100Z,5.68
2024-02-28T21:50:44.437Z,5.07
2024-02-28T21:53:29.482Z,4.90
2024-02-28T21:56:14.648Z,5.10
2024-02-28T21:59:01.417Z,5.35
2024-02-28T22:01:48.070Z,4.95
2024-02-28T22:04:33.045Z,4.90
2024-02-28T22:07:18.376Z,5.40
2024-02-28T22:10:04.621Z,6.00
2024-02-28T22:12:49.597Z,6.30
2024-02-28T22:15:35.383Z,6.30
2024-02-28T22:18:20.494Z,6.23
2024-02-28T22:21:05.706Z,6.18
2024-02-28T22:23:50.741Z,6.05
2024-02-28T22:26:35.625Z,5.90
2024-02-28T22:29:23.347Z,5.50
2024-02-28T22:32:08.630Z,6.20
2024-02-28T22:34:53.661Z,5.68
2024-02-28T22:37:38.860Z,6.25
2024-02-28T22:40:24.279Z,5.65
2024-02-28T22:43:10.039Z,6.50
2024-02-28T22:45:55.056Z,6.20
2024-02-28T22:48:41.083Z,6.15
2024-02-28T22:51:26.494Z,6.45
2024-02-28T22:54:15.855Z,6.00
2024-02-28T22:57:01.325Z,6.38
2024-02-28T22:59:46.593Z,6.10
2024-02-28T23:02:31.509Z,5.78
2024-02-28T23:05:16.697Z,6.05
2024-02-28T23:08:01.735Z,6.50
2024-02-28T23:10:47.908Z,6.15
2024-02-28T23:13:33.115Z,6.47
2024-02-28T23:16:18.433Z,6.55
2024-02-28T23:19:03.646Z,6.18
2024-02-28T23:21:49.038Z,6.13
2024-02-28T23:24:34.475Z,6.95
2024-02-28T23:27:19.401Z,6.13
2024-02-28T23:30:06.992Z,7.32
2024-02-28T23:32:52.228Z,6.78
2024-02-28T23:35:38.715Z,7.75
2024-02-28T23:38:23.994Z,6.40
2024-02-28T23:41:09.193Z,6.37
2024-02-28T23:43:57.492Z,6.28
2024-02-28T23:46:43.568Z,7.68
2024-02-28T23:49:28.489Z,5.78
2024-02-28T23:52:13.827Z,6.50
2024-02-28T23:54:58.765Z,6.13
2024-02-28T23:57:43.753Z,6.30
